La Victoria — XCAJ4 — position and weather

sailwx.info

Track history (hours):
 
Tides and Currents Weather Stations Pressure Air Temp Water Temp Dewpoint Dewpoint Depression Visibility Wind Speed Wind Dir Waves Ship Positions

La Victoria

Last reported at 2017-Sep-21 22:55 UTC. Time now 2017-Sep-21 23:13 UTC.
Position N 19°12' W 096°08'.

Length 15 m.

Type: Pilot. MMSI: 345030092.

Date/timePositionNaut miles runAvg speedWind from/ knotsBaromVisibWave heightAir tempDewpointWater temp
2017-Sep-21 22:55N 19°12' W 096°08'0 0.0
2017-Sep-21 22:28N 19°12' W 096°08'0 0.0
2017-Sep-21 21:58N 19°12' W 096°08'0 0.0
2017-Sep-21 21:28N 19°12' W 096°08'0 0.0
2017-Sep-21 20:55N 19°12' W 096°08'0 0.0
2017-Sep-21 20:25N 19°12' W 096°08'0 0.0
2017-Sep-21 19:55N 19°12' W 096°08'0 0.0
2017-Sep-21 19:28N 19°12' W 096°08'0 0.0
2017-Sep-21 18:55N 19°12' W 096°08'0 0.0
2017-Sep-21 18:25N 19°12' W 096°08'0 0.0
2017-Sep-21 17:55N 19°12' W 096°08'0 0.0
2017-Sep-21 17:25N 19°12' W 096°08'0 0.0
2017-Sep-21 16:55N 19°12' W 096°08'0 0.0
2017-Sep-21 16:29N 19°12' W 096°08'0 0.5
2017-Sep-21 15:57N 19°12' W 096°08'0 0.4
2017-Sep-21 15:21N 19°12' W 096°08'0 0.0
2017-Sep-21 15:00N 19°12' W 096°08'0 0.0
2017-Sep-21 14:30N 19°12' W 096°08'1 1.8
2017-Sep-21 13:58N 19°13' W 096°08'1 2.0
2017-Sep-21 13:29N 19°12' W 096°08'4 6.5
2017-Sep-21 12:52N 19°12' W 096°04'4 9.6
2017-Sep-21 12:27N 19°12' W 096°08'0 0.0
2017-Sep-21 12:00N 19°12' W 096°08'0 0.0
2017-Sep-21 11:30N 19°12' W 096°08'0 0.0
2017-Sep-21 11:00N 19°12' W 096°08'0 0.0
2017-Sep-21 10:30N 19°12' W 096°08'0 0.0
2017-Sep-21 10:00N 19°12' W 096°08'0 0.0
2017-Sep-21 09:27N 19°12' W 096°08'0 0.0
2017-Sep-21 09:00N 19°12' W 096°08'0 0.0
2017-Sep-21 08:27N 19°12' W 096°08'0 0.0
2017-Sep-21 08:00N 19°12' W 096°08'0 0.0
2017-Sep-21 07:30N 19°12' W 096°08'0 0.0
2017-Sep-21 06:57N 19°12' W 096°08'0 0.0
2017-Sep-21 06:30N 19°12' W 096°08'0 0.3
2017-Sep-21 06:00N 19°12' W 096°08'1 1.3
2017-Sep-21 05:30N 19°12' W 096°07'1 1.5
2017-Sep-21 04:59N 19°12' W 096°08'0 0.6
2017-Sep-21 04:30N 19°12' W 096°08'0 0.0
2017-Sep-21 04:00N 19°12' W 096°08'0 0.0
2017-Sep-21 03:30N 19°12' W 096°08'0 0.0
2017-Sep-21 03:00N 19°12' W 096°08'0 0.0
2017-Sep-21 02:30N 19°12' W 096°08'0 0.0
2017-Sep-21 02:00N 19°12' W 096°08'0 0.0
2017-Sep-21 01:30N 19°12' W 096°08'0 0.1
2017-Sep-21 01:00N 19°12' W 096°08'1 2.9
2017-Sep-21 00:30N 19°12' W 096°06'2 3.1
2017-Sep-21 00:00N 19°12' W 096°08'0 0.0
2017-Sep-20 23:25N 19°12' W 096°08'0 1.1
2017-Sep-20 23:00N 19°12' W 096°08'0 0.9
2017-Sep-20 22:28N 19°12' W 096°08'4 9.1
2017-Sep-20 22:00N 19°11' W 096°04'4 8.2
2017-Sep-20 21:29N 19°12' W 096°08'2 4.0
2017-Sep-20 21:00N 19°12' W 096°06'2 3.9
2017-Sep-20 20:30N 19°12' W 096°08'0 0.0
2017-Sep-20 19:59N 19°12' W 096°08'0 0.0
2017-Sep-20 19:26N 19°12' W 096°08'0 0.0
2017-Sep-20 18:59N 19°12' W 096°08'0 0.0
2017-Sep-20 18:29N 19°12' W 096°08'0 0.0
2017-Sep-20 17:59N 19°12' W 096°08'0 0.0
2017-Sep-20 17:29N 19°12' W 096°08'0 0.0
2017-Sep-20 16:59N 19°12' W 096°08'0 0.0
2017-Sep-20 16:29N 19°12' W 096°08'0 0.0
2017-Sep-20 15:59N 19°12' W 096°08'0 0.0
2017-Sep-20 15:29N 19°12' W 096°08'0 0.0
2017-Sep-20 14:59N 19°12' W 096°08'0 0.0
2017-Sep-20 13:59N 19°12' W 096°08'0 0.0
2017-Sep-20 13:23N 19°12' W 096°08'0 0.0
2017-Sep-20 12:59N 19°12' W 096°08'0 0.0
2017-Sep-20 12:26N 19°12' W 096°08'0 0.7
2017-Sep-20 12:00N 19°12' W 096°08'0 0.6
2017-Sep-20 11:28N 19°12' W 096°08'3 6.9
2017-Sep-20 11:00N 19°12' W 096°04'3 6.0
2017-Sep-20 10:27N 19°12' W 096°08'0 0.0
2017-Sep-20 09:57N 19°12' W 096°08'0 0.0
2017-Sep-20 09:30N 19°12' W 096°08'0 0.0
2017-Sep-20 09:00N 19°12' W 096°08'0 0.0
2017-Sep-20 08:27N 19°12' W 096°08'0 0.0
2017-Sep-20 07:57N 19°12' W 096°08'0 0.0
2017-Sep-20 07:30N 19°12' W 096°08'0 0.0
2017-Sep-20 06:57N 19°12' W 096°08'0 0.0
2017-Sep-20 06:30N 19°12' W 096°08'0 0.0
2017-Sep-20 05:51N 19°12' W 096°08'1 2.4
2017-Sep-20 05:30N 19°13' W 096°08'0 0.2
2017-Sep-20 04:56N 19°13' W 096°08'510.5
2017-Sep-20 04:30N 19°11' W 096°04'4 7.9
2017-Sep-20 03:59N 19°12' W 096°08'0 0.0
2017-Sep-20 03:26N 19°12' W 096°08'0 0.0
2017-Sep-20 02:59N 19°12' W 096°08'0 0.0
2017-Sep-20 02:29N 19°12' W 096°08'1 1.5
2017-Sep-20 01:59N 19°13' W 096°08'1 1.4
2017-Sep-20 01:28N 19°12' W 096°08'3 5.6
2017-Sep-20 01:00N 19°12' W 096°05'2 3.2
2017-Sep-20 00:30N 19°12' W 096°07'1 2.0
2017-Sep-19 23:58N 19°12' W 096°08'0 0.0
2017-Sep-19 23:25N 19°12' W 096°08'0 0.0
2017-Sep-19 22:55N 19°12' W 096°08'0 0.0
2017-Sep-19 22:28N 19°12' W 096°08'0 0.0
2017-Sep-19 21:55N 19°12' W 096°08'0 0.0
2017-Sep-19 21:28N 19°12' W 096°08'0 0.0
2017-Sep-19 20:58N 19°12' W 096°08'0 0.0
2017-Sep-19 20:25N 19°12' W 096°08'0 0.0
2017-Sep-19 19:55N 19°12' W 096°08'0 0.0
2017-Sep-19 19:28N 19°12' W 096°08'0 0.0
2017-Sep-19 18:55N 19°12' W 096°08'0 0.0
2017-Sep-19 18:28N 19°12' W 096°08'0 0.0
2017-Sep-19 17:58N 19°12' W 096°08'0 0.0
2017-Sep-19 17:25N 19°12' W 096°08'0 0.0
2017-Sep-19 16:58N 19°12' W 096°08'0 0.0
2017-Sep-19 16:22N 19°12' W 096°08'0 0.0
2017-Sep-19 16:00N 19°12' W 096°08'0 0.4
2017-Sep-19 15:25N 19°12' W 096°08'0 0.6
2017-Sep-19 14:59N 19°12' W 096°08'0 0.0
2017-Sep-19 14:29N 19°12' W 096°08'0 0.0
2017-Sep-19 13:59N 19°12' W 096°08'0 0.0
2017-Sep-19 13:29N 19°12' W 096°08'0 0.0
2017-Sep-19 12:56N 19°12' W 096°08'0 0.0
2017-Sep-19 12:29N 19°12' W 096°08'1 1.1
2017-Sep-19 12:00N 19°12' W 096°07'1 1.1
2017-Sep-19 11:29N 19°12' W 096°08'4 7.5
2017-Sep-19 11:00N 19°11' W 096°04'4 6.9
2017-Sep-19 10:28N 19°12' W 096°08'0 0.0
2017-Sep-19 09:43N 19°12' W 096°08'0 0.0
2017-Sep-19 09:19N 19°12' W 096°08'0 0.0
2017-Sep-19 08:55N 19°12' W 096°08'0 0.0
2017-Sep-19 08:22N 19°12' W 096°08'0 0.0
2017-Sep-19 07:58N 19°12' W 096°08'0 0.0
2017-Sep-19 07:19N 19°12' W 096°08'0 0.0
2017-Sep-19 06:58N 19°12' W 096°08'0 0.0
2017-Sep-19 06:25N 19°12' W 096°08'0 0.0
2017-Sep-19 05:58N 19°12' W 096°08'0 0.0
2017-Sep-19 05:28N 19°12' W 096°08'2 3.7
2017-Sep-19 05:00N 19°12' W 096°06'2 3.4
2017-Sep-19 04:29N 19°12' W 096°08'1 1.4
2017-Sep-19 03:58N 19°13' W 096°08'1 1.5
2017-Sep-19 03:28N 19°12' W 096°08'4 8.0
2017-Sep-19 02:57N 19°12' W 096°03'4 8.5
2017-Sep-19 02:28N 19°12' W 096°08'0 0.0
2017-Sep-19 01:58N 19°12' W 096°08'0 0.0
2017-Sep-19 01:22N 19°12' W 096°08'1 2.0
2017-Sep-19 01:00N 19°13' W 096°08'2 3.2
2017-Sep-19 00:30N 19°12' W 096°07'1 2.4
2017-Sep-19 00:00N 19°12' W 096°08'0 0.0
2017-Sep-18 23:28N 19°12' W 096°08'0 0.0
2017-Sep-18 22:58N 19°12' W 096°08'0 0.0
2017-Sep-18 22:29N 19°12' W 096°08'0 0.0
2017-Sep-18 22:00N 19°12' W 096°08'2 4.3
2017-Sep-18 21:30N 19°14' W 096°07'3 5.4
2017-Sep-18 21:00N 19°14' W 096°10'3 5.5
2017-Sep-18 20:30N 19°14' W 096°07'2 3.8
2017-Sep-18 20:00N 19°12' W 096°08'0 0.0
2017-Sep-18 19:30N 19°12' W 096°08'2 3.1
2017-Sep-18 18:58N 19°12' W 096°06'1 2.9
2017-Sep-18 18:29N 19°12' W 096°08'1 1.6
2017-Sep-18 18:00N 19°13' W 096°08'1 1.4
2017-Sep-18 17:30N 19°12' W 096°08'0 0.0
2017-Sep-18 16:54N 19°12' W 096°08'0 0.0
2017-Sep-18 16:30N 19°12' W 096°08'0 0.0
2017-Sep-18 15:54N 19°12' W 096°08'0 0.0
2017-Sep-18 15:30N 19°12' W 096°08'0 0.0
2017-Sep-18 15:00N 19°12' W 096°08'0 0.0
2017-Sep-18 14:31N 19°12' W 096°08'0 0.0
2017-Sep-18 14:01N 19°12' W 096°08'2 4.3
2017-Sep-18 13:29N 19°14' W 096°07'2 4.7
2017-Sep-18 12:59N 19°14' W 096°10'1 2.4
2017-Sep-18 12:30N 19°14' W 096°09'2 3.5
2017-Sep-18 12:00N 19°15' W 096°07'2 4.4
2017-Sep-18 11:29N 19°13' W 096°06'2 4.9
2017-Sep-18 11:00N 19°11' W 096°04'4 6.5
2017-Sep-18 10:28N 19°12' W 096°08'0 0.0
2017-Sep-18 09:58N 19°12' W 096°08'0 0.0
2017-Sep-18 09:28N 19°12' W 096°08'1 1.4
2017-Sep-18 09:00N 19°12' W 096°08'1 1.3
2017-Sep-18 08:29N 19°12' W 096°08'4 7.2
2017-Sep-18 07:58N 19°11' W 096°04'4 7.9
2017-Sep-18 07:29N 19°12' W 096°08'0 0.0
2017-Sep-18 06:56N 19°12' W 096°08'0 0.0
2017-Sep-18 06:29N 19°12' W 096°08'0 0.0
2017-Sep-18 05:56N 19°12' W 096°08'0 0.0
2017-Sep-18 05:29N 19°12' W 096°08'0 0.0
2017-Sep-18 04:59N 19°12' W 096°08'0 0.0
2017-Sep-18 04:29N 19°12' W 096°08'0 0.0
2017-Sep-18 03:56N 19°12' W 096°08'0 0.0
2017-Sep-18 03:29N 19°12' W 096°08'0 0.0
2017-Sep-18 02:59N 19°12' W 096°08'0 0.0
2017-Sep-18 02:29N 19°12' W 096°08'0 0.0
2017-Sep-18 01:59N 19°12' W 096°08'0 0.0
2017-Sep-18 01:29N 19°12' W 096°08'0 0.0
2017-Sep-18 00:56N 19°12' W 096°08'0 0.0
2017-Sep-18 00:29N 19°12' W 096°08'0 0.0
2017-Sep-17 23:59N 19°12' W 096°08'0 0.0
2017-Sep-17 23:29N 19°12' W 096°08'0 0.0
2017-Sep-17 22:59N 19°12' W 096°08'0 0.0
2017-Sep-17 22:29N 19°12' W 096°08'0 0.0
2017-Sep-17 22:00N 19°12' W 096°08'0 0.3
2017-Sep-17 21:30N 19°12' W 096°08'1 1.2
2017-Sep-17 20:59N 19°13' W 096°08'1 1.3
2017-Sep-17 20:30N 19°12' W 096°08'0 0.0
2017-Sep-17 19:57N 19°12' W 096°08'0 0.0
2017-Sep-17 19:30N 19°12' W 096°08'0 0.0
2017-Sep-17 19:00N 19°12' W 096°08'0 0.0
2017-Sep-17 18:27N 19°12' W 096°08'0 0.0
2017-Sep-17 18:00N 19°12' W 096°08'0 0.0
2017-Sep-17 17:30N 19°12' W 096°08'0 0.5
2017-Sep-17 16:56N 19°12' W 096°08'0 0.0
2017-Sep-17 16:26N 19°12' W 096°08'0 0.4
2017-Sep-17 15:47N 19°12' W 096°08'0 0.0
2017-Sep-17 15:26N 19°12' W 096°08'0 0.0
2017-Sep-17 14:59N 19°12' W 096°08'0 0.0
2017-Sep-17 14:29N 19°12' W 096°08'0 0.0
2017-Sep-17 13:59N 19°12' W 096°08'0 0.0
2017-Sep-17 13:29N 19°12' W 096°08'0 0.0
2017-Sep-17 12:59N 19°12' W 096°08'0 0.0
2017-Sep-17 12:29N 19°12' W 096°08'0 0.0
2017-Sep-17 11:59N 19°12' W 096°08'0 0.0
2017-Sep-17 11:26N 19°12' W 096°08'0 0.0
2017-Sep-17 10:59N 19°12' W 096°08'0 0.0
2017-Sep-17 10:29N 19°12' W 096°08'0 0.0
2017-Sep-17 09:56N 19°12' W 096°08'0 0.0
2017-Sep-17 09:29N 19°12' W 096°08'0 0.0
2017-Sep-17 08:56N 19°12' W 096°08'0 0.0
2017-Sep-17 08:26N 19°12' W 096°08'0 0.0
2017-Sep-17 07:59N 19°12' W 096°08'0 0.0
2017-Sep-17 07:29N 19°12' W 096°08'0 0.0
2017-Sep-17 06:59N 19°12' W 096°08'0 0.0
2017-Sep-17 06:29N 19°12' W 096°08'0 0.0
2017-Sep-16 23:58N 19°12' W 096°08'0 0.0
2017-Sep-16 23:25N 19°12' W 096°08'0 0.0
2017-Sep-16 22:58N 19°12' W 096°08'0 0.0
2017-Sep-16 22:25N 19°12' W 096°08'1 2.2
2017-Sep-16 22:00N 19°12' W 096°07'0 0.3
2017-Sep-16 21:30N 19°12' W 096°07'1 2.6
2017-Sep-16 21:00N 19°13' W 096°08'1 1.1
2017-Sep-16 20:29N 19°12' W 096°08'0 0.8
2017-Sep-16 20:00N 19°12' W 096°08'0 0.8
2017-Sep-16 19:30N 19°12' W 096°08'0 0.0
2017-Sep-16 19:00N 19°12' W 096°08'0 0.0
2017-Sep-16 18:30N 19°12' W 096°08'0 0.0
2017-Sep-16 17:57N 19°12' W 096°08'0 0.0
2017-Sep-16 17:30N 19°12' W 096°08'0 0.0
2017-Sep-16 16:54N 19°12' W 096°08'0 0.0
2017-Sep-16 16:30N 19°12' W 096°08'0 0.0
2017-Sep-16 15:57N 19°12' W 096°08'0 0.0
2017-Sep-16 15:30N 19°12' W 096°08'0 0.0
2017-Sep-16 14:57N 19°12' W 096°08'0 0.0
2017-Sep-16 14:24N 19°12' W 096°08'0 0.0
2017-Sep-16 14:00N 19°12' W 096°08'0 0.0
2017-Sep-16 13:30N 19°12' W 096°08'0 0.0
2017-Sep-16 12:57N 19°12' W 096°08'0 0.0
2017-Sep-16 12:30N 19°12' W 096°08'0 0.0
2017-Sep-16 11:57N 19°12' W 096°08'0 0.0
2017-Sep-16 11:30N 19°12' W 096°08'0 0.0
2017-Sep-16 11:00N 19°12' W 096°08'0 0.0
2017-Sep-16 10:30N 19°12' W 096°08'0 0.0
2017-Sep-16 10:00N 19°12' W 096°08'0 0.0
2017-Sep-16 09:30N 19°12' W 096°08'0 0.0
2017-Sep-16 09:00N 19°12' W 096°08'0 0.0
2017-Sep-16 08:30N 19°12' W 096°08'0 0.0
2017-Sep-16 08:00N 19°12' W 096°08'0 0.0
2017-Sep-16 07:30N 19°12' W 096°08'0 0.0
2017-Sep-16 06:57N 19°12' W 096°08'0 0.0
2017-Sep-16 06:30N 19°12' W 096°08'0 0.0
2017-Sep-16 05:57N 19°12' W 096°08'0 0.0
2017-Sep-16 05:30N 19°12' W 096°08'0 0.0
2017-Sep-16 05:00N 19°12' W 096°08'0 0.0
2017-Sep-16 04:27N 19°12' W 096°08'0 0.0
2017-Sep-16 03:51N 19°12' W 096°08'0 0.0
2017-Sep-16 03:30N 19°12' W 096°08'0 0.0
2017-Sep-16 03:00N 19°12' W 096°08'0 0.0
2017-Sep-16 02:30N 19°12' W 096°08'0 0.0
2017-Sep-16 02:00N 19°12' W 096°08'0 0.0
2017-Sep-16 01:30N 19°12' W 096°08'0 0.0
2017-Sep-16 01:00N 19°12' W 096°08'0 0.0
2017-Sep-16 00:24N 19°12' W 096°08'0 0.0
2017-Sep-15 23:57N 19°12' W 096°08'0 0.0
2017-Sep-15 23:30N 19°12' W 096°08'0 0.0
2017-Sep-15 22:57N 19°12' W 096°08'0 0.0
2017-Sep-15 22:24N 19°12' W 096°08'0 0.0
2017-Sep-15 21:57N 19°12' W 096°08'0 0.0
2017-Sep-15 21:30N 19°12' W 096°08'0 0.0
2017-Sep-15 21:00N 19°12' W 096°08'0 0.0
2017-Sep-15 20:27N 19°12' W 096°08'0 0.0
2017-Sep-15 19:57N 19°12' W 096°08'0 0.0
2017-Sep-15 19:30N 19°12' W 096°08'0 0.0
2017-Sep-15 18:54N 19°12' W 096°08'0 0.0
2017-Sep-15 18:30N 19°12' W 096°08'0 0.0
2017-Sep-15 18:00N 19°12' W 096°08'0 0.0
2017-Sep-15 17:30N 19°12' W 096°08'0 0.0
2017-Sep-15 16:57N 19°12' W 096°08'0 0.0
2017-Sep-15 16:30N 19°12' W 096°08'0 0.0
2017-Sep-15 16:00N 19°12' W 096°08'0 0.0
2017-Sep-15 15:27N 19°12' W 096°08'0 0.0
2017-Sep-15 15:00N 19°12' W 096°08'0 0.0
2017-Sep-15 14:30N 19°12' W 096°08'0 0.0
2017-Sep-15 14:00N 19°12' W 096°08'0 0.0
2017-Sep-15 13:27N 19°12' W 096°08'0 0.0
2017-Sep-15 13:00N 19°12' W 096°08'0 0.0
2017-Sep-15 12:27N 19°12' W 096°08'0 0.0
2017-Sep-15 12:00N 19°12' W 096°08'0 0.0
2017-Sep-15 11:30N 19°12' W 096°08'0 0.0
2017-Sep-15 11:00N 19°12' W 096°08'0 0.0
2017-Sep-15 10:30N 19°12' W 096°08'0 0.0
2017-Sep-15 09:54N 19°12' W 096°08'0 0.0
2017-Sep-15 09:30N 19°12' W 096°08'0 0.0
2017-Sep-15 09:00N 19°12' W 096°08'0 0.0
2017-Sep-15 08:30N 19°12' W 096°08'0 0.0
2017-Sep-15 08:00N 19°12' W 096°08'0 0.0
2017-Sep-15 07:21N 19°12' W 096°08'0 0.0
2017-Sep-15 07:00N 19°12' W 096°08'0 0.0
2017-Sep-15 06:30N 19°12' W 096°08'0 0.0
2017-Sep-15 06:00N 19°12' W 096°08'0 0.0
2017-Sep-15 05:30N 19°12' W 096°08'0 0.0
2017-Sep-15 04:57N 19°12' W 096°08'0 0.0
2017-Sep-15 04:30N 19°12' W 096°08'0 0.0
2017-Sep-15 04:00N 19°12' W 096°08'1 1.0
2017-Sep-15 03:30N 19°12' W 096°08'1 1.6
2017-Sep-15 02:59N 19°12' W 096°07'3 4.7
2017-Sep-15 02:25N 19°12' W 096°04'1 2.1
2017-Sep-15 02:00N 19°12' W 096°03'4 7.2
2017-Sep-15 01:30N 19°12' W 096°07'1 1.0
2017-Sep-15 00:57N 19°12' W 096°08'0 0.4
2017-Sep-15 00:29N 19°12' W 096°08'1 2.2
2017-Sep-15 00:00N 19°12' W 096°07'2 3.4
2017-Sep-14 23:30N 19°13' W 096°08'1 1.2
2017-Sep-14 22:53N 19°12' W 096°08'0 0.0
2017-Sep-14 22:29N 19°12' W 096°08'0 0.0
2017-Sep-14 21:59N 19°12' W 096°08'0 0.0
2017-Sep-14 21:29N 19°12' W 096°08'0 0.0
2017-Sep-14 20:59N 19°12' W 096°08'0 0.0
2017-Sep-14 20:29N 19°12' W 096°08'0 0.0
2017-Sep-14 19:59N 19°12' W 096°08'0 0.0
2017-Sep-14 19:29N 19°12' W 096°08'0 0.0
2017-Sep-14 18:56N 19°12' W 096°08'1 1.0
2017-Sep-14 18:26N 19°12' W 096°07'1 1.0
2017-Sep-14 17:57N 19°12' W 096°08'4 7.0
2017-Sep-14 17:22N 19°12' W 096°03'0 1.1
2017-Sep-14 17:00N 19°12' W 096°04'4 7.0
2017-Sep-14 16:28N 19°12' W 096°08'0 0.0
2017-Sep-14 15:58N 19°12' W 096°08'0 0.0
2017-Sep-14 15:28N 19°12' W 096°08'0 0.0
2017-Sep-14 14:58N 19°12' W 096°08'1 1.6
2017-Sep-14 14:30N 19°12' W 096°07'2 3.8
2017-Sep-14 13:59N 19°14' W 096°07'1 2.6
2017-Sep-14 13:30N 19°13' W 096°07'1 2.9
2017-Sep-14 12:59N 19°12' W 096°08'0 0.4
2017-Sep-14 12:21N 19°12' W 096°08'0 0.0
2017-Sep-14 11:59N 19°12' W 096°08'0 0.2
2017-Sep-14 11:30N 19°12' W 096°08'0 0.4
2017-Sep-14 10:58N 19°12' W 096°08'3 6.3
2017-Sep-14 10:30N 19°12' W 096°05'3 5.4
2017-Sep-14 09:58N 19°12' W 096°08'0 0.0
2017-Sep-14 09:28N 19°12' W 096°08'0 0.0
2017-Sep-14 08:58N 19°12' W 096°08'0 0.0
2017-Sep-14 08:28N 19°12' W 096°08'0 0.0
2017-Sep-14 07:58N 19°12' W 096°08'0 0.0
2017-Sep-14 07:28N 19°12' W 096°08'0 0.0
2017-Sep-14 06:58N 19°12' W 096°08'0 0.0
2017-Sep-14 06:28N 19°12' W 096°08'0 0.0
2017-Sep-14 05:58N 19°12' W 096°08'0 0.0
2017-Sep-14 05:28N 19°12' W 096°08'0 0.0
2017-Sep-14 04:58N 19°12' W 096°08'0 0.0
2017-Sep-14 04:28N 19°12' W 096°08'0 0.0
2017-Sep-14 03:58N 19°12' W 096°08'0 0.0
2017-Sep-14 03:22N 19°12' W 096°08'0 0.7
2017-Sep-14 03:00N 19°12' W 096°08'0 0.5
2017-Sep-14 02:29N 19°12' W 096°08'0 0.0
2017-Sep-14 01:59N 19°12' W 096°08'0 0.0
2017-Sep-14 01:26N 19°12' W 096°08'0 0.0
2017-Sep-14 00:59N 19°12' W 096°08'0 0.0
2017-Sep-14 00:29N 19°12' W 096°08'0 0.0
2017-Sep-13 23:59N 19°12' W 096°08'1 1.6
2017-Sep-13 23:29N 19°13' W 096°08'1 1.5
2017-Sep-13 22:56N 19°12' W 096°08'0 0.0
2017-Sep-13 22:29N 19°12' W 096°08'0 0.0
2017-Sep-13 21:59N 19°12' W 096°08'0 0.0
2017-Sep-13 21:29N 19°12' W 096°08'4 7.2
2017-Sep-13 20:58N 19°11' W 096°04'4 7.5
2017-Sep-13 20:29N 19°12' W 096°08'0 0.0
2017-Sep-13 19:53N 19°12' W 096°08'0 0.0
2017-Sep-13 19:26N 19°12' W 096°08'0 0.0
2017-Sep-13 18:47N 19°12' W 096°08'0 0.0
2017-Sep-13 18:29N 19°12' W 096°08'1 2.4
2017-Sep-13 17:59N 19°12' W 096°07'1 2.3
2017-Sep-13 17:30N 19°12' W 096°08'0 0.4
2017-Sep-13 17:00N 19°12' W 096°08'0 0.4
2017-Sep-13 16:28N 19°12' W 096°08'2 3.4
2017-Sep-13 16:00N 19°12' W 096°06'2 3.3
2017-Sep-13 15:28N 19°12' W 096°08'0 0.5
2017-Sep-13 14:58N 19°12' W 096°08'2 4.4
2017-Sep-13 14:30N 19°12' W 096°06'2 4.1
2017-Sep-13 14:00N 19°12' W 096°08'0 0.0
2017-Sep-13 13:26N 19°12' W 096°08'0 0.0
2017-Sep-13 12:59N 19°12' W 096°08'0 0.0
2017-Sep-13 12:29N 19°12' W 096°08'0 0.0
2017-Sep-13 11:59N 19°12' W 096°08'0 0.0
2017-Sep-13 11:29N 19°12' W 096°08'0 0.0
2017-Sep-13 10:59N 19°12' W 096°08'0 0.0
2017-Sep-13 10:26N 19°12' W 096°08'2 5.3
2017-Sep-13 10:00N 19°12' W 096°05'2 4.7
2017-Sep-13 09:30N 19°12' W 096°08'1 1.3
2017-Sep-13 08:58N 19°13' W 096°08'1 2.8
2017-Sep-13 08:29N 19°12' W 096°07'1 1.4
2017-Sep-13 08:00N 19°12' W 096°06'2 2.9
2017-Sep-13 07:25N 19°12' W 096°08'0 0.0
2017-Sep-13 07:00N 19°12' W 096°08'0 0.0
2017-Sep-13 06:29N 19°12' W 096°08'0 0.0
2017-Sep-13 05:56N 19°12' W 096°08'0 0.0
2017-Sep-13 05:29N 19°12' W 096°08'0 0.0
2017-Sep-13 04:56N 19°12' W 096°08'0 0.0
2017-Sep-13 04:29N 19°12' W 096°08'0 0.0
2017-Sep-13 03:59N 19°12' W 096°08'0 0.0
2017-Sep-13 03:29N 19°12' W 096°08'0 0.0
2017-Sep-13 02:59N 19°12' W 096°08'0 0.0
2017-Sep-13 02:29N 19°12' W 096°08'0 0.0
2017-Sep-13 01:59N 19°12' W 096°08'0 0.0
2017-Sep-13 01:29N 19°12' W 096°08'0 0.0
2017-Sep-13 00:59N 19°12' W 096°08'0 0.0
2017-Sep-13 00:29N 19°12' W 096°08'0 0.0
2017-Sep-12 23:59N 19°12' W 096°08'0 0.0
2017-Sep-12 23:29N 19°12' W 096°08'0 0.0
2017-Sep-12 22:59N 19°12' W 096°08'0 0.0
2017-Sep-12 22:29N 19°12' W 096°08'0 0.0
2017-Sep-12 21:59N 19°12' W 096°08'0 0.0
2017-Sep-12 21:29N 19°12' W 096°08'0 0.0
2017-Sep-12 20:59N 19°12' W 096°08'0 0.0
2017-Sep-12 20:29N 19°12' W 096°08'0 0.0
2017-Sep-12 19:59N 19°12' W 096°08'0 0.0
2017-Sep-12 19:29N 19°12' W 096°08'0 0.0
2017-Sep-12 18:59N 19°12' W 096°08'0 0.0
2017-Sep-12 18:29N 19°12' W 096°08'0 0.0
2017-Sep-12 17:59N 19°12' W 096°08'0 0.0
2017-Sep-12 17:29N 19°12' W 096°08'0 0.5
2017-Sep-12 16:57N 19°12' W 096°08'1 1.4
2017-Sep-12 16:30N 19°13' W 096°08'3 5.6
2017-Sep-12 15:58N 19°12' W 096°05'2 3.4
2017-Sep-12 15:30N 19°12' W 096°04'4 6.4
2017-Sep-12 14:53N 19°12' W 096°08'0 0.0
2017-Sep-12 14:26N 19°12' W 096°08'4 9.8
2017-Sep-12 14:00N 19°11' W 096°03'4 7.5
2017-Sep-12 13:30N 19°12' W 096°07'1 1.3
2017-Sep-12 12:58N 19°12' W 096°08'0 0.0
2017-Sep-12 12:28N 19°12' W 096°08'0 0.0
2017-Sep-12 11:58N 19°12' W 096°08'0 0.0
2017-Sep-12 11:28N 19°12' W 096°08'2 4.1
2017-Sep-12 11:00N 19°12' W 096°06'2 4.7
2017-Sep-12 10:30N 19°13' W 096°08'1 1.8
2017-Sep-12 09:59N 19°12' W 096°08'0 0.0
2017-Sep-12 09:29N 19°12' W 096°08'0 0.0
2017-Sep-12 08:59N 19°12' W 096°08'0 0.0
2017-Sep-12 08:29N 19°12' W 096°08'0 0.0
2017-Sep-12 07:59N 19°12' W 096°08'0 0.0
2017-Sep-12 07:29N 19°12' W 096°08'0 0.0
2017-Sep-12 06:59N 19°12' W 096°08'0 0.0
2017-Sep-12 06:29N 19°12' W 096°08'0 0.0
2017-Sep-12 05:59N 19°12' W 096°08'0 0.0
2017-Sep-12 05:29N 19°12' W 096°08'0 0.0
2017-Sep-12 04:35N 19°12' W 096°08'0 0.0
2017-Sep-12 04:29N 19°12' W 096°08'0 0.0
2017-Sep-12 03:59N 19°12' W 096°08'0 0.0
2017-Sep-12 03:29N 19°12' W 096°08'0 0.0
2017-Sep-12 02:59N 19°12' W 096°08'0 0.0
2017-Sep-12 02:26N 19°12' W 096°08'0 0.0
2017-Sep-12 01:59N 19°12' W 096°08'0 0.0
2017-Sep-12 01:29N 19°12' W 096°08'0 0.0
2017-Sep-12 00:59N 19°12' W 096°08'0 0.0
2017-Sep-12 00:29N 19°12' W 096°08'1 2.2
2017-Sep-12 00:00N 19°12' W 096°07'1 2.1
2017-Sep-11 23:29N 19°12' W 096°08'0 0.7
2017-Sep-11 23:00N 19°12' W 096°08'  
Track history (hours):
 
Tides and Currents Weather Stations Pressure Air Temp Water Temp Dewpoint Dewpoint Depression Visibility Wind Speed Wind Dir Waves Ship Positions

La Victoria

Last reported at 2017-Sep-21 22:55 UTC. Time now 2017-Sep-21 23:13 UTC.
Position N 19°12' W 096°08'.

Length 15 m.

Type: Pilot. MMSI: 345030092.

Date/timePositionNaut miles runAvg speedWind from/ knotsBaromVisibWave heightAir tempDewpointWater temp
2017-Sep-21 22:55N 19°12' W 096°08'0 0.0
2017-Sep-21 22:28N 19°12' W 096°08'0 0.0
2017-Sep-21 21:58N 19°12' W 096°08'0 0.0
2017-Sep-21 21:28N 19°12' W 096°08'0 0.0
2017-Sep-21 20:55N 19°12' W 096°08'0 0.0
2017-Sep-21 20:25N 19°12' W 096°08'0 0.0
2017-Sep-21 19:55N 19°12' W 096°08'0 0.0
2017-Sep-21 19:28N 19°12' W 096°08'0 0.0
2017-Sep-21 18:55N 19°12' W 096°08'0 0.0
2017-Sep-21 18:25N 19°12' W 096°08'0 0.0
2017-Sep-21 17:55N 19°12' W 096°08'0 0.0
2017-Sep-21 17:25N 19°12' W 096°08'0 0.0
2017-Sep-21 16:55N 19°12' W 096°08'0 0.0
2017-Sep-21 16:29N 19°12' W 096°08'0 0.5
2017-Sep-21 15:57N 19°12' W 096°08'0 0.4
2017-Sep-21 15:21N 19°12' W 096°08'0 0.0
2017-Sep-21 15:00N 19°12' W 096°08'0 0.0
2017-Sep-21 14:30N 19°12' W 096°08'1 1.8
2017-Sep-21 13:58N 19°13' W 096°08'1 2.0
2017-Sep-21 13:29N 19°12' W 096°08'4 6.5
2017-Sep-21 12:52N 19°12' W 096°04'4 9.6
2017-Sep-21 12:27N 19°12' W 096°08'0 0.0
2017-Sep-21 12:00N 19°12' W 096°08'0 0.0
2017-Sep-21 11:30N 19°12' W 096°08'0 0.0
2017-Sep-21 11:00N 19°12' W 096°08'0 0.0
2017-Sep-21 10:30N 19°12' W 096°08'0 0.0
2017-Sep-21 10:00N 19°12' W 096°08'0 0.0
2017-Sep-21 09:27N 19°12' W 096°08'0 0.0
2017-Sep-21 09:00N 19°12' W 096°08'0 0.0
2017-Sep-21 08:27N 19°12' W 096°08'0 0.0
2017-Sep-21 08:00N 19°12' W 096°08'0 0.0
2017-Sep-21 07:30N 19°12' W 096°08'0 0.0
2017-Sep-21 06:57N 19°12' W 096°08'0 0.0
2017-Sep-21 06:30N 19°12' W 096°08'0 0.3
2017-Sep-21 06:00N 19°12' W 096°08'1 1.3
2017-Sep-21 05:30N 19°12' W 096°07'1 1.5
2017-Sep-21 04:59N 19°12' W 096°08'0 0.6
2017-Sep-21 04:30N 19°12' W 096°08'0 0.0
2017-Sep-21 04:00N 19°12' W 096°08'0 0.0
2017-Sep-21 03:30N 19°12' W 096°08'0 0.0
2017-Sep-21 03:00N 19°12' W 096°08'0 0.0
2017-Sep-21 02:30N 19°12' W 096°08'0 0.0
2017-Sep-21 02:00N 19°12' W 096°08'0 0.0
2017-Sep-21 01:30N 19°12' W 096°08'0 0.1
2017-Sep-21 01:00N 19°12' W 096°08'1 2.9
2017-Sep-21 00:30N 19°12' W 096°06'2 3.1
2017-Sep-21 00:00N 19°12' W 096°08'0 0.0
2017-Sep-20 23:25N 19°12' W 096°08'0 1.1
2017-Sep-20 23:00N 19°12' W 096°08'0 0.9
2017-Sep-20 22:28N 19°12' W 096°08'4 9.1
2017-Sep-20 22:00N 19°11' W 096°04'4 8.2
2017-Sep-20 21:29N 19°12' W 096°08'2 4.0
2017-Sep-20 21:00N 19°12' W 096°06'2 3.9
2017-Sep-20 20:30N 19°12' W 096°08'0 0.0
2017-Sep-20 19:59N 19°12' W 096°08'0 0.0
2017-Sep-20 19:26N 19°12' W 096°08'0 0.0
2017-Sep-20 18:59N 19°12' W 096°08'0 0.0
2017-Sep-20 18:29N 19°12' W 096°08'0 0.0
2017-Sep-20 17:59N 19°12' W 096°08'0 0.0
2017-Sep-20 17:29N 19°12' W 096°08'0 0.0
2017-Sep-20 16:59N 19°12' W 096°08'0 0.0
2017-Sep-20 16:29N 19°12' W 096°08'0 0.0
2017-Sep-20 15:59N 19°12' W 096°08'0 0.0
2017-Sep-20 15:29N 19°12' W 096°08'0 0.0
2017-Sep-20 14:59N 19°12' W 096°08'0 0.0
2017-Sep-20 13:59N 19°12' W 096°08'0 0.0
2017-Sep-20 13:23N 19°12' W 096°08'0 0.0
2017-Sep-20 12:59N 19°12' W 096°08'0 0.0
2017-Sep-20 12:26N 19°12' W 096°08'0 0.7
2017-Sep-20 12:00N 19°12' W 096°08'0 0.6
2017-Sep-20 11:28N 19°12' W 096°08'3 6.9
2017-Sep-20 11:00N 19°12' W 096°04'3 6.0
2017-Sep-20 10:27N 19°12' W 096°08'0 0.0
2017-Sep-20 09:57N 19°12' W 096°08'0 0.0
2017-Sep-20 09:30N 19°12' W 096°08'0 0.0
2017-Sep-20 09:00N 19°12' W 096°08'0 0.0
2017-Sep-20 08:27N 19°12' W 096°08'0 0.0
2017-Sep-20 07:57N 19°12' W 096°08'0 0.0
2017-Sep-20 07:30N 19°12' W 096°08'0 0.0
2017-Sep-20 06:57N 19°12' W 096°08'0 0.0
2017-Sep-20 06:30N 19°12' W 096°08'0 0.0
2017-Sep-20 05:51N 19°12' W 096°08'1 2.4
2017-Sep-20 05:30N 19°13' W 096°08'0 0.2
2017-Sep-20 04:56N 19°13' W 096°08'510.5
2017-Sep-20 04:30N 19°11' W 096°04'4 7.9
2017-Sep-20 03:59N 19°12' W 096°08'0 0.0
2017-Sep-20 03:26N 19°12' W 096°08'0 0.0
2017-Sep-20 02:59N 19°12' W 096°08'0 0.0
2017-Sep-20 02:29N 19°12' W 096°08'1 1.5
2017-Sep-20 01:59N 19°13' W 096°08'1 1.4
2017-Sep-20 01:28N 19°12' W 096°08'3 5.6
2017-Sep-20 01:00N 19°12' W 096°05'2 3.2
2017-Sep-20 00:30N 19°12' W 096°07'1 2.0
2017-Sep-19 23:58N 19°12' W 096°08'0 0.0
2017-Sep-19 23:25N 19°12' W 096°08'0 0.0
2017-Sep-19 22:55N 19°12' W 096°08'0 0.0
2017-Sep-19 22:28N 19°12' W 096°08'0 0.0
2017-Sep-19 21:55N 19°12' W 096°08'0 0.0
2017-Sep-19 21:28N 19°12' W 096°08'0 0.0
2017-Sep-19 20:58N 19°12' W 096°08'0 0.0
2017-Sep-19 20:25N 19°12' W 096°08'0 0.0
2017-Sep-19 19:55N 19°12' W 096°08'0 0.0
2017-Sep-19 19:28N 19°12' W 096°08'0 0.0
2017-Sep-19 18:55N 19°12' W 096°08'0 0.0
2017-Sep-19 18:28N 19°12' W 096°08'0 0.0
2017-Sep-19 17:58N 19°12' W 096°08'0 0.0
2017-Sep-19 17:25N 19°12' W 096°08'0 0.0
2017-Sep-19 16:58N 19°12' W 096°08'0 0.0
2017-Sep-19 16:22N 19°12' W 096°08'0 0.0
2017-Sep-19 16:00N 19°12' W 096°08'0 0.4
2017-Sep-19 15:25N 19°12' W 096°08'0 0.6
2017-Sep-19 14:59N 19°12' W 096°08'0 0.0
2017-Sep-19 14:29N 19°12' W 096°08'0 0.0
2017-Sep-19 13:59N 19°12' W 096°08'0 0.0
2017-Sep-19 13:29N 19°12' W 096°08'0 0.0
2017-Sep-19 12:56N 19°12' W 096°08'0 0.0
2017-Sep-19 12:29N 19°12' W 096°08'1 1.1
2017-Sep-19 12:00N 19°12' W 096°07'1 1.1
2017-Sep-19 11:29N 19°12' W 096°08'4 7.5
2017-Sep-19 11:00N 19°11' W 096°04'4 6.9
2017-Sep-19 10:28N 19°12' W 096°08'0 0.0
2017-Sep-19 09:43N 19°12' W 096°08'0 0.0
2017-Sep-19 09:19N 19°12' W 096°08'0 0.0
2017-Sep-19 08:55N 19°12' W 096°08'0 0.0
2017-Sep-19 08:22N 19°12' W 096°08'0 0.0
2017-Sep-19 07:58N 19°12' W 096°08'0 0.0
2017-Sep-19 07:19N 19°12' W 096°08'0 0.0
2017-Sep-19 06:58N 19°12' W 096°08'0 0.0
2017-Sep-19 06:25N 19°12' W 096°08'0 0.0
2017-Sep-19 05:58N 19°12' W 096°08'0 0.0
2017-Sep-19 05:28N 19°12' W 096°08'2 3.7
2017-Sep-19 05:00N 19°12' W 096°06'2 3.4
2017-Sep-19 04:29N 19°12' W 096°08'1 1.4
2017-Sep-19 03:58N 19°13' W 096°08'1 1.5
2017-Sep-19 03:28N 19°12' W 096°08'4 8.0
2017-Sep-19 02:57N 19°12' W 096°03'4 8.5
2017-Sep-19 02:28N 19°12' W 096°08'0 0.0
2017-Sep-19 01:58N 19°12' W 096°08'0 0.0
2017-Sep-19 01:22N 19°12' W 096°08'1 2.0
2017-Sep-19 01:00N 19°13' W 096°08'2 3.2
2017-Sep-19 00:30N 19°12' W 096°07'1 2.4
2017-Sep-19 00:00N 19°12' W 096°08'0 0.0
2017-Sep-18 23:28N 19°12' W 096°08'0 0.0
2017-Sep-18 22:58N 19°12' W 096°08'0 0.0
2017-Sep-18 22:29N 19°12' W 096°08'0 0.0
2017-Sep-18 22:00N 19°12' W 096°08'2 4.3
2017-Sep-18 21:30N 19°14' W 096°07'3 5.4
2017-Sep-18 21:00N 19°14' W 096°10'3 5.5
2017-Sep-18 20:30N 19°14' W 096°07'2 3.8
2017-Sep-18 20:00N 19°12' W 096°08'0 0.0
2017-Sep-18 19:30N 19°12' W 096°08'2 3.1
2017-Sep-18 18:58N 19°12' W 096°06'1 2.9
2017-Sep-18 18:29N 19°12' W 096°08'1 1.6
2017-Sep-18 18:00N 19°13' W 096°08'1 1.4
2017-Sep-18 17:30N 19°12' W 096°08'0 0.0
2017-Sep-18 16:54N 19°12' W 096°08'0 0.0
2017-Sep-18 16:30N 19°12' W 096°08'0 0.0
2017-Sep-18 15:54N 19°12' W 096°08'0 0.0
2017-Sep-18 15:30N 19°12' W 096°08'0 0.0
2017-Sep-18 15:00N 19°12' W 096°08'0 0.0
2017-Sep-18 14:31N 19°12' W 096°08'0 0.0
2017-Sep-18 14:01N 19°12' W 096°08'2 4.3
2017-Sep-18 13:29N 19°14' W 096°07'2 4.7
2017-Sep-18 12:59N 19°14' W 096°10'1 2.4
2017-Sep-18 12:30N 19°14' W 096°09'2 3.5
2017-Sep-18 12:00N 19°15' W 096°07'2 4.4
2017-Sep-18 11:29N 19°13' W 096°06'2 4.9
2017-Sep-18 11:00N 19°11' W 096°04'4 6.5
2017-Sep-18 10:28N 19°12' W 096°08'0 0.0
2017-Sep-18 09:58N 19°12' W 096°08'0 0.0
2017-Sep-18 09:28N 19°12' W 096°08'1 1.4
2017-Sep-18 09:00N 19°12' W 096°08'1 1.3
2017-Sep-18 08:29N 19°12' W 096°08'4 7.2
2017-Sep-18 07:58N 19°11' W 096°04'4 7.9
2017-Sep-18 07:29N 19°12' W 096°08'0 0.0
2017-Sep-18 06:56N 19°12' W 096°08'0 0.0
2017-Sep-18 06:29N 19°12' W 096°08'0 0.0
2017-Sep-18 05:56N 19°12' W 096°08'0 0.0
2017-Sep-18 05:29N 19°12' W 096°08'0 0.0
2017-Sep-18 04:59N 19°12' W 096°08'0 0.0
2017-Sep-18 04:29N 19°12' W 096°08'0 0.0
2017-Sep-18 03:56N 19°12' W 096°08'0 0.0
2017-Sep-18 03:29N 19°12' W 096°08'0 0.0
2017-Sep-18 02:59N 19°12' W 096°08'0 0.0
2017-Sep-18 02:29N 19°12' W 096°08'0 0.0
2017-Sep-18 01:59N 19°12' W 096°08'0 0.0
2017-Sep-18 01:29N 19°12' W 096°08'0 0.0
2017-Sep-18 00:56N 19°12' W 096°08'0 0.0
2017-Sep-18 00:29N 19°12' W 096°08'0 0.0
2017-Sep-17 23:59N 19°12' W 096°08'0 0.0
2017-Sep-17 23:29N 19°12' W 096°08'0 0.0
2017-Sep-17 22:59N 19°12' W 096°08'0 0.0
2017-Sep-17 22:29N 19°12' W 096°08'0 0.0
2017-Sep-17 22:00N 19°12' W 096°08'0 0.3
2017-Sep-17 21:30N 19°12' W 096°08'1 1.2
2017-Sep-17 20:59N 19°13' W 096°08'1 1.3
2017-Sep-17 20:30N 19°12' W 096°08'0 0.0
2017-Sep-17 19:57N 19°12' W 096°08'0 0.0
2017-Sep-17 19:30N 19°12' W 096°08'0 0.0
2017-Sep-17 19:00N 19°12' W 096°08'0 0.0
2017-Sep-17 18:27N 19°12' W 096°08'0 0.0
2017-Sep-17 18:00N 19°12' W 096°08'0 0.0
2017-Sep-17 17:30N 19°12' W 096°08'0 0.5
2017-Sep-17 16:56N 19°12' W 096°08'0 0.0
2017-Sep-17 16:26N 19°12' W 096°08'0 0.4
2017-Sep-17 15:47N 19°12' W 096°08'0 0.0
2017-Sep-17 15:26N 19°12' W 096°08'0 0.0
2017-Sep-17 14:59N 19°12' W 096°08'0 0.0
2017-Sep-17 14:29N 19°12' W 096°08'0 0.0
2017-Sep-17 13:59N 19°12' W 096°08'0 0.0
2017-Sep-17 13:29N 19°12' W 096°08'0 0.0
2017-Sep-17 12:59N 19°12' W 096°08'0 0.0
2017-Sep-17 12:29N 19°12' W 096°08'0 0.0
2017-Sep-17 11:59N 19°12' W 096°08'0 0.0
2017-Sep-17 11:26N 19°12' W 096°08'0 0.0
2017-Sep-17 10:59N 19°12' W 096°08'0 0.0
2017-Sep-17 10:29N 19°12' W 096°08'0 0.0
2017-Sep-17 09:56N 19°12' W 096°08'0 0.0
2017-Sep-17 09:29N 19°12' W 096°08'0 0.0
2017-Sep-17 08:56N 19°12' W 096°08'0 0.0
2017-Sep-17 08:26N 19°12' W 096°08'0 0.0
2017-Sep-17 07:59N 19°12' W 096°08'0 0.0
2017-Sep-17 07:29N 19°12' W 096°08'0 0.0
2017-Sep-17 06:59N 19°12' W 096°08'0 0.0
2017-Sep-17 06:29N 19°12' W 096°08'0 0.0
2017-Sep-16 23:58N 19°12' W 096°08'0 0.0
2017-Sep-16 23:25N 19°12' W 096°08'0 0.0
2017-Sep-16 22:58N 19°12' W 096°08'0 0.0
2017-Sep-16 22:25N 19°12' W 096°08'1 2.2
2017-Sep-16 22:00N 19°12' W 096°07'0 0.3
2017-Sep-16 21:30N 19°12' W 096°07'1 2.6
2017-Sep-16 21:00N 19°13' W 096°08'1 1.1
2017-Sep-16 20:29N 19°12' W 096°08'0 0.8
2017-Sep-16 20:00N 19°12' W 096°08'0 0.8
2017-Sep-16 19:30N 19°12' W 096°08'0 0.0
2017-Sep-16 19:00N 19°12' W 096°08'0 0.0
2017-Sep-16 18:30N 19°12' W 096°08'0 0.0
2017-Sep-16 17:57N 19°12' W 096°08'0 0.0
2017-Sep-16 17:30N 19°12' W 096°08'0 0.0
2017-Sep-16 16:54N 19°12' W 096°08'0 0.0
2017-Sep-16 16:30N 19°12' W 096°08'0 0.0
2017-Sep-16 15:57N 19°12' W 096°08'0 0.0
2017-Sep-16 15:30N 19°12' W 096°08'0 0.0
2017-Sep-16 14:57N 19°12' W 096°08'0 0.0
2017-Sep-16 14:24N 19°12' W 096°08'0 0.0
2017-Sep-16 14:00N 19°12' W 096°08'0 0.0
2017-Sep-16 13:30N 19°12' W 096°08'0 0.0
2017-Sep-16 12:57N 19°12' W 096°08'0 0.0
2017-Sep-16 12:30N 19°12' W 096°08'0 0.0
2017-Sep-16 11:57N 19°12' W 096°08'0 0.0
2017-Sep-16 11:30N 19°12' W 096°08'0 0.0
2017-Sep-16 11:00N 19°12' W 096°08'0 0.0
2017-Sep-16 10:30N 19°12' W 096°08'0 0.0
2017-Sep-16 10:00N 19°12' W 096°08'0 0.0
2017-Sep-16 09:30N 19°12' W 096°08'0 0.0
2017-Sep-16 09:00N 19°12' W 096°08'0 0.0
2017-Sep-16 08:30N 19°12' W 096°08'0 0.0
2017-Sep-16 08:00N 19°12' W 096°08'0 0.0
2017-Sep-16 07:30N 19°12' W 096°08'0 0.0
2017-Sep-16 06:57N 19°12' W 096°08'0 0.0
2017-Sep-16 06:30N 19°12' W 096°08'0 0.0
2017-Sep-16 05:57N 19°12' W 096°08'0 0.0
2017-Sep-16 05:30N 19°12' W 096°08'0 0.0
2017-Sep-16 05:00N 19°12' W 096°08'0 0.0
2017-Sep-16 04:27N 19°12' W 096°08'0 0.0
2017-Sep-16 03:51N 19°12' W 096°08'0 0.0
2017-Sep-16 03:30N 19°12' W 096°08'0 0.0
2017-Sep-16 03:00N 19°12' W 096°08'0 0.0
2017-Sep-16 02:30N 19°12' W 096°08'0 0.0
2017-Sep-16 02:00N 19°12' W 096°08'0 0.0
2017-Sep-16 01:30N 19°12' W 096°08'0 0.0
2017-Sep-16 01:00N 19°12' W 096°08'0 0.0
2017-Sep-16 00:24N 19°12' W 096°08'0 0.0
2017-Sep-15 23:57N 19°12' W 096°08'0 0.0
2017-Sep-15 23:30N 19°12' W 096°08'0 0.0
2017-Sep-15 22:57N 19°12' W 096°08'0 0.0
2017-Sep-15 22:24N 19°12' W 096°08'0 0.0
2017-Sep-15 21:57N 19°12' W 096°08'0 0.0
2017-Sep-15 21:30N 19°12' W 096°08'0 0.0
2017-Sep-15 21:00N 19°12' W 096°08'0 0.0
2017-Sep-15 20:27N 19°12' W 096°08'0 0.0
2017-Sep-15 19:57N 19°12' W 096°08'0 0.0
2017-Sep-15 19:30N 19°12' W 096°08'0 0.0
2017-Sep-15 18:54N 19°12' W 096°08'0 0.0
2017-Sep-15 18:30N 19°12' W 096°08'0 0.0
2017-Sep-15 18:00N 19°12' W 096°08'0 0.0
2017-Sep-15 17:30N 19°12' W 096°08'0 0.0
2017-Sep-15 16:57N 19°12' W 096°08'0 0.0
2017-Sep-15 16:30N 19°12' W 096°08'0 0.0
2017-Sep-15 16:00N 19°12' W 096°08'0 0.0
2017-Sep-15 15:27N 19°12' W 096°08'0 0.0
2017-Sep-15 15:00N 19°12' W 096°08'0 0.0
2017-Sep-15 14:30N 19°12' W 096°08'0 0.0
2017-Sep-15 14:00N 19°12' W 096°08'0 0.0
2017-Sep-15 13:27N 19°12' W 096°08'0 0.0
2017-Sep-15 13:00N 19°12' W 096°08'0 0.0
2017-Sep-15 12:27N 19°12' W 096°08'0 0.0
2017-Sep-15 12:00N 19°12' W 096°08'0 0.0
2017-Sep-15 11:30N 19°12' W 096°08'0 0.0
2017-Sep-15 11:00N 19°12' W 096°08'0 0.0
2017-Sep-15 10:30N 19°12' W 096°08'0 0.0
2017-Sep-15 09:54N 19°12' W 096°08'0 0.0
2017-Sep-15 09:30N 19°12' W 096°08'0 0.0
2017-Sep-15 09:00N 19°12' W 096°08'0 0.0
2017-Sep-15 08:30N 19°12' W 096°08'0 0.0
2017-Sep-15 08:00N 19°12' W 096°08'0 0.0
2017-Sep-15 07:21N 19°12' W 096°08'0 0.0
2017-Sep-15 07:00N 19°12' W 096°08'0 0.0
2017-Sep-15 06:30N 19°12' W 096°08'0 0.0
2017-Sep-15 06:00N 19°12' W 096°08'0 0.0
2017-Sep-15 05:30N 19°12' W 096°08'0 0.0
2017-Sep-15 04:57N 19°12' W 096°08'0 0.0
2017-Sep-15 04:30N 19°12' W 096°08'0 0.0
2017-Sep-15 04:00N 19°12' W 096°08'1 1.0
2017-Sep-15 03:30N 19°12' W 096°08'1 1.6
2017-Sep-15 02:59N 19°12' W 096°07'3 4.7
2017-Sep-15 02:25N 19°12' W 096°04'1 2.1
2017-Sep-15 02:00N 19°12' W 096°03'4 7.2
2017-Sep-15 01:30N 19°12' W 096°07'1 1.0
2017-Sep-15 00:57N 19°12' W 096°08'0 0.4
2017-Sep-15 00:29N 19°12' W 096°08'1 2.2
2017-Sep-15 00:00N 19°12' W 096°07'2 3.4
2017-Sep-14 23:30N 19°13' W 096°08'1 1.2
2017-Sep-14 22:53N 19°12' W 096°08'0 0.0
2017-Sep-14 22:29N 19°12' W 096°08'0 0.0
2017-Sep-14 21:59N 19°12' W 096°08'0 0.0
2017-Sep-14 21:29N 19°12' W 096°08'0 0.0
2017-Sep-14 20:59N 19°12' W 096°08'0 0.0
2017-Sep-14 20:29N 19°12' W 096°08'0 0.0
2017-Sep-14 19:59N 19°12' W 096°08'0 0.0
2017-Sep-14 19:29N 19°12' W 096°08'0 0.0
2017-Sep-14 18:56N 19°12' W 096°08'1 1.0
2017-Sep-14 18:26N 19°12' W 096°07'1 1.0
2017-Sep-14 17:57N 19°12' W 096°08'4 7.0
2017-Sep-14 17:22N 19°12' W 096°03'0 1.1
2017-Sep-14 17:00N 19°12' W 096°04'4 7.0
2017-Sep-14 16:28N 19°12' W 096°08'0 0.0
2017-Sep-14 15:58N 19°12' W 096°08'0 0.0
2017-Sep-14 15:28N 19°12' W 096°08'0 0.0
2017-Sep-14 14:58N 19°12' W 096°08'1 1.6
2017-Sep-14 14:30N 19°12' W 096°07'2 3.8
2017-Sep-14 13:59N 19°14' W 096°07'1 2.6
2017-Sep-14 13:30N 19°13' W 096°07'1 2.9
2017-Sep-14 12:59N 19°12' W 096°08'0 0.4
2017-Sep-14 12:21N 19°12' W 096°08'0 0.0
2017-Sep-14 11:59N 19°12' W 096°08'0 0.2
2017-Sep-14 11:30N 19°12' W 096°08'0 0.4
2017-Sep-14 10:58N 19°12' W 096°08'3 6.3
2017-Sep-14 10:30N 19°12' W 096°05'3 5.4
2017-Sep-14 09:58N 19°12' W 096°08'0 0.0
2017-Sep-14 09:28N 19°12' W 096°08'0 0.0
2017-Sep-14 08:58N 19°12' W 096°08'0 0.0
2017-Sep-14 08:28N 19°12' W 096°08'0 0.0
2017-Sep-14 07:58N 19°12' W 096°08'0 0.0
2017-Sep-14 07:28N 19°12' W 096°08'0 0.0
2017-Sep-14 06:58N 19°12' W 096°08'0 0.0
2017-Sep-14 06:28N 19°12' W 096°08'0 0.0
2017-Sep-14 05:58N 19°12' W 096°08'0 0.0
2017-Sep-14 05:28N 19°12' W 096°08'0 0.0
2017-Sep-14 04:58N 19°12' W 096°08'0 0.0
2017-Sep-14 04:28N 19°12' W 096°08'0 0.0
2017-Sep-14 03:58N 19°12' W 096°08'0 0.0
2017-Sep-14 03:22N 19°12' W 096°08'0 0.7
2017-Sep-14 03:00N 19°12' W 096°08'0 0.5
2017-Sep-14 02:29N 19°12' W 096°08'0 0.0
2017-Sep-14 01:59N 19°12' W 096°08'0 0.0
2017-Sep-14 01:26N 19°12' W 096°08'0 0.0
2017-Sep-14 00:59N 19°12' W 096°08'0 0.0
2017-Sep-14 00:29N 19°12' W 096°08'0 0.0
2017-Sep-13 23:59N 19°12' W 096°08'1 1.6
2017-Sep-13 23:29N 19°13' W 096°08'1 1.5
2017-Sep-13 22:56N 19°12' W 096°08'0 0.0
2017-Sep-13 22:29N 19°12' W 096°08'0 0.0
2017-Sep-13 21:59N 19°12' W 096°08'0 0.0
2017-Sep-13 21:29N 19°12' W 096°08'4 7.2
2017-Sep-13 20:58N 19°11' W 096°04'4 7.5
2017-Sep-13 20:29N 19°12' W 096°08'0 0.0
2017-Sep-13 19:53N 19°12' W 096°08'0 0.0
2017-Sep-13 19:26N 19°12' W 096°08'0 0.0
2017-Sep-13 18:47N 19°12' W 096°08'0 0.0
2017-Sep-13 18:29N 19°12' W 096°08'1 2.4
2017-Sep-13 17:59N 19°12' W 096°07'1 2.3
2017-Sep-13 17:30N 19°12' W 096°08'0 0.4
2017-Sep-13 17:00N 19°12' W 096°08'0 0.4
2017-Sep-13 16:28N 19°12' W 096°08'2 3.4
2017-Sep-13 16:00N 19°12' W 096°06'2 3.3
2017-Sep-13 15:28N 19°12' W 096°08'0 0.5
2017-Sep-13 14:58N 19°12' W 096°08'2 4.4
2017-Sep-13 14:30N 19°12' W 096°06'2 4.1
2017-Sep-13 14:00N 19°12' W 096°08'0 0.0
2017-Sep-13 13:26N 19°12' W 096°08'0 0.0
2017-Sep-13 12:59N 19°12' W 096°08'0 0.0
2017-Sep-13 12:29N 19°12' W 096°08'0 0.0
2017-Sep-13 11:59N 19°12' W 096°08'0 0.0
2017-Sep-13 11:29N 19°12' W 096°08'0 0.0
2017-Sep-13 10:59N 19°12' W 096°08'0 0.0
2017-Sep-13 10:26N 19°12' W 096°08'2 5.3
2017-Sep-13 10:00N 19°12' W 096°05'2 4.7
2017-Sep-13 09:30N 19°12' W 096°08'1 1.3
2017-Sep-13 08:58N 19°13' W 096°08'1 2.8
2017-Sep-13 08:29N 19°12' W 096°07'1 1.4
2017-Sep-13 08:00N 19°12' W 096°06'2 2.9
2017-Sep-13 07:25N 19°12' W 096°08'0 0.0
2017-Sep-13 07:00N 19°12' W 096°08'0 0.0
2017-Sep-13 06:29N 19°12' W 096°08'0 0.0
2017-Sep-13 05:56N 19°12' W 096°08'0 0.0
2017-Sep-13 05:29N 19°12' W 096°08'0 0.0
2017-Sep-13 04:56N 19°12' W 096°08'0 0.0
2017-Sep-13 04:29N 19°12' W 096°08'0 0.0
2017-Sep-13 03:59N 19°12' W 096°08'0 0.0
2017-Sep-13 03:29N 19°12' W 096°08'0 0.0
2017-Sep-13 02:59N 19°12' W 096°08'0 0.0
2017-Sep-13 02:29N 19°12' W 096°08'0 0.0
2017-Sep-13 01:59N 19°12' W 096°08'0 0.0
2017-Sep-13 01:29N 19°12' W 096°08'0 0.0
2017-Sep-13 00:59N 19°12' W 096°08'0 0.0
2017-Sep-13 00:29N 19°12' W 096°08'0 0.0
2017-Sep-12 23:59N 19°12' W 096°08'0 0.0
2017-Sep-12 23:29N 19°12' W 096°08'0 0.0
2017-Sep-12 22:59N 19°12' W 096°08'0 0.0
2017-Sep-12 22:29N 19°12' W 096°08'0 0.0
2017-Sep-12 21:59N 19°12' W 096°08'0 0.0
2017-Sep-12 21:29N 19°12' W 096°08'0 0.0
2017-Sep-12 20:59N 19°12' W 096°08'0 0.0
2017-Sep-12 20:29N 19°12' W 096°08'0 0.0
2017-Sep-12 19:59N 19°12' W 096°08'0 0.0
2017-Sep-12 19:29N 19°12' W 096°08'0 0.0
2017-Sep-12 18:59N 19°12' W 096°08'0 0.0
2017-Sep-12 18:29N 19°12' W 096°08'0 0.0
2017-Sep-12 17:59N 19°12' W 096°08'0 0.0
2017-Sep-12 17:29N 19°12' W 096°08'0 0.5
2017-Sep-12 16:57N 19°12' W 096°08'1 1.4
2017-Sep-12 16:30N 19°13' W 096°08'3 5.6
2017-Sep-12 15:58N 19°12' W 096°05'2 3.4
2017-Sep-12 15:30N 19°12' W 096°04'4 6.4
2017-Sep-12 14:53N 19°12' W 096°08'0 0.0
2017-Sep-12 14:26N 19°12' W 096°08'4 9.8
2017-Sep-12 14:00N 19°11' W 096°03'4 7.5
2017-Sep-12 13:30N 19°12' W 096°07'1 1.3
2017-Sep-12 12:58N 19°12' W 096°08'0 0.0
2017-Sep-12 12:28N 19°12' W 096°08'0 0.0
2017-Sep-12 11:58N 19°12' W 096°08'0 0.0
2017-Sep-12 11:28N 19°12' W 096°08'2 4.1
2017-Sep-12 11:00N 19°12' W 096°06'2 4.7
2017-Sep-12 10:30N 19°13' W 096°08'1 1.8
2017-Sep-12 09:59N 19°12' W 096°08'0 0.0
2017-Sep-12 09:29N 19°12' W 096°08'0 0.0
2017-Sep-12 08:59N 19°12' W 096°08'0 0.0
2017-Sep-12 08:29N 19°12' W 096°08'0 0.0
2017-Sep-12 07:59N 19°12' W 096°08'0 0.0
2017-Sep-12 07:29N 19°12' W 096°08'0 0.0
2017-Sep-12 06:59N 19°12' W 096°08'0 0.0
2017-Sep-12 06:29N 19°12' W 096°08'0 0.0
2017-Sep-12 05:59N 19°12' W 096°08'0 0.0
2017-Sep-12 05:29N 19°12' W 096°08'0 0.0
2017-Sep-12 04:35N 19°12' W 096°08'0 0.0
2017-Sep-12 04:29N 19°12' W 096°08'0 0.0
2017-Sep-12 03:59N 19°12' W 096°08'0 0.0
2017-Sep-12 03:29N 19°12' W 096°08'0 0.0
2017-Sep-12 02:59N 19°12' W 096°08'0 0.0
2017-Sep-12 02:26N 19°12' W 096°08'0 0.0
2017-Sep-12 01:59N 19°12' W 096°08'0 0.0
2017-Sep-12 01:29N 19°12' W 096°08'0 0.0
2017-Sep-12 00:59N 19°12' W 096°08'0 0.0
2017-Sep-12 00:29N 19°12' W 096°08'1 2.2
2017-Sep-12 00:00N 19°12' W 096°07'1 2.1
2017-Sep-11 23:29N 19°12' W 096°08'0 0.7
2017-Sep-11 23:00N 19°12' W 096°08'  

Dump ship's entire track history